CheckWX is a tool to help pilots better visualize weather data.  It is not intended as a substitute for an official pre-flight weather briefing.

22:17:41 UTC

KCID TAF
The Eastern Iowa Airport
Cedar Rapids, Iowa, USA
KCID 212048Z 2121/2218 17017G27KT P6SM SKC FM220000 17013KT P6SM SCT150 FM220600 16013KT P6SM BKN150 WS015/19040KT FM221200 19015G22KT P6SM SCT020 BKN030 PROB30 2214/2218 5SM -TSRA OVC030CB

Apr-21@
21:00 UTC

Apr-21 @ 21:00 UTC

Apr-22@
00:00 UTC

Apr-22 @ 00:00 UTC

KCID 212048Z 2121/2218 17017G27KT P6SM SKC
Wind
  • 170° at 17 KTS
  • {Gusting to 27 KTS
Cloud Levels
  • Clear skies

Apr-22@
00:00 UTC

Apr-22 @ 00:00 UTC

Apr-22@
06:00 UTC

Apr-22 @ 06:00 UTC

FM220000 17013KT P6SM SCT150

From

From Standard forecast or significant change

Wind
  • 170° at 13 KTS
Cloud Levels
  • Scattered at 15,000' AGL

Apr-22@
06:00 UTC

Apr-22 @ 06:00 UTC

Apr-22@
12:00 UTC

Apr-22 @ 12:00 UTC

FM220600 16013KT P6SM BKN150 WS015/19040KT

From

From Standard forecast or significant change

Wind
  • 160° at 13 KTS
Cloud Levels
  • Broken at 15,000' AGL

Apr-22@
12:00 UTC

Apr-22 @ 12:00 UTC

Apr-22@
18:00 UTC

Apr-22 @ 18:00 UTC

FM221200 19015G22KT P6SM SCT020 BKN030

From

From Standard forecast or significant change

Wind
  • 190° at 15 KTS
  • {Gusting to 22 KTS
Cloud Levels
  • Scattered at 2,000' AGL
  • Broken at 3,000' AGL

Apr-22@
14:00 UTC

Apr-22 @ 14:00 UTC

Apr-22@
18:00 UTC

Apr-22 @ 18:00 UTC

PROB30 2214/2218 5SM -TSRA OVC030CB

Probable - 30% Likelihood

Probable - 30% Likelihood during this time.

Conditions
Light Thunderstorm, Light Rain
Cloud Levels
  • Overcast at 3,000' AGL